Time;durP1;ratioP1;P1;durP2;ratioP2;P2;SDS_P1;SDS_P2;PMS_P1;PMS_P2;Temp;Humidity;BMP_temperature;BMP_pressure;BME280_temperature;BME280_humidity;BME280_pressure;Samples;Min_cycle;Max_cycle;Signal;HPM_P1;HPM_P2
2021/12/06 00:02:27;;;;;;;;;;;;;;;12.60;48.07;101324.00;5019781;28;20260;-86
2021/12/06 00:04:53;;;;;;;;;;;;;;;12.59;48.62;101333.97;5037792;28;20000;-85
2021/12/06 00:07:21;;;;;;;;;;;;;;;12.64;48.12;101330.19;5036564;28;19952;-85
2021/12/06 00:09:47;;;;;;;;;;;;;;;12.72;49.08;101331.53;5036973;28;19972;-85
2021/12/06 00:12:14;;;;;;;;;;;;;;;12.69;48.75;101331.69;5020046;28;19918;-84
2021/12/06 00:14:41;;;;;;;;;;;;;;;12.71;48.05;101337.03;5021594;28;19921;-86
2021/12/06 00:17:08;;;;;;;;;;;;;;;12.47;48.85;101340.00;5022469;28;19925;-85
2021/12/06 00:19:34;;;;;;;;;;;;;;;12.67;48.91;101336.31;5023859;28;19901;-86
2021/12/06 00:22:00;;;;;;;;;;;;;;;12.67;48.92;101341.75;5022980;28;19975;-85
2021/12/06 00:24:26;;;;;;;;;;;;;;;12.20;49.74;101342.19;5022120;28;19947;-85
2021/12/06 00:26:51;;;;;;;;;;;;;;;12.52;49.60;101351.50;5038408;28;19913;-85
2021/12/06 00:29:18;;;;;;;;;;;;;;;12.56;49.06;101350.41;5039151;28;19924;-86
2021/12/06 00:31:43;;;;;;;;;;;;;;;12.55;48.91;101347.78;5037940;28;19926;-85
2021/12/06 00:34:13;;;;;;;;;;;;;;;12.57;49.57;101351.28;5038955;28;19926;-86
2021/12/06 00:36:40;;;;;;;;;;;;;;;12.60;48.98;101353.84;5024352;28;19921;-86
2021/12/06 00:39:08;;;;;;;;;;;;;;;12.47;49.54;101353.56;5040914;28;19914;-87
2021/12/06 00:41:34;;;;;;;;;;;;;;;12.63;49.31;101348.28;5039900;28;20287;-88
2021/12/06 00:44:00;;;;;;;;;;;;;;;12.55;49.56;101355.94;5041003;28;19947;-88
2021/12/06 00:46:26;;;;;;;;;;;;;;;12.40;49.25;101358.41;5041406;28;19924;-88
2021/12/06 00:48:51;;;;;;;;;;;;;;;12.57;49.47;101365.72;5039592;28;19929;-88
2021/12/06 00:51:17;;;;;;;;;;;;;;;12.43;49.55;101365.53;5041620;28;19925;-88
2021/12/06 00:53:43;;;;;;;;;;;;;;;12.74;49.07;101366.75;5025338;28;20291;-87
2021/12/06 00:56:09;;;;;;;;;;;;;;;12.50;49.22;101375.16;5043319;28;19976;-88
2021/12/06 00:58:34;;;;;;;;;;;;;;;12.71;49.46;101375.06;5044855;28;19917;-86
2021/12/06 01:01:00;;;;;;;;;;;;;;;11.93;51.28;101383.16;5033846;28;19925;-86
2021/12/06 01:03:27;;;;;;;;;;;;;;;11.84;51.18;101388.97;5053265;28;19922;-87
2021/12/06 01:05:53;;;;;;;;;;;;;;;12.35;50.80;101390.31;5047095;28;19918;-89
2021/12/06 01:08:23;;;;;;;;;;;;;;;12.63;49.38;101398.97;5045522;28;19924;-89
2021/12/06 01:10:49;;;;;;;;;;;;;;;11.96;51.50;101395.72;5041171;28;19918;-89
2021/12/06 01:13:15;;;;;;;;;;;;;;;12.05;50.96;101398.88;5041423;28;20405;-90
2021/12/06 01:15:41;;;;;;;;;;;;;;;12.00;51.58;101410.88;5040437;28;19917;-89
2021/12/06 01:18:09;;;;;;;;;;;;;;;12.14;51.58;101405.72;5041074;28;20268;-90
2021/12/06 01:20:40;;;;;;;;;;;;;;;12.32;50.97;101406.72;5041297;28;19949;-89
2021/12/06 01:23:09;;;;;;;;;;;;;;;12.32;50.65;101409.44;5041715;28;19925;-89
2021/12/06 01:25:50;;;;;;;;;;;;;;;12.60;49.84;101416.28;5041428;28;19917;-89
2021/12/06 01:41:26;;;;;;;;;;;;;;;12.32;49.90;101428.44;5029214;28;19923;-90
2021/12/06 01:44:06;;;;;;;;;;;;;;;12.64;49.40;101428.78;5043878;28;19941;-89
2021/12/06 01:46:32;;;;;;;;;;;;;;;12.72;49.12;101433.84;5043611;28;19917;-89
2021/12/06 01:48:57;;;;;;;;;;;;;;;12.89;48.77;101433.94;5043894;28;20016;-89
2021/12/06 01:51:23;;;;;;;;;;;;;;;12.63;49.46;101440.56;5042459;28;19916;-89
2021/12/06 01:53:48;;;;;;;;;;;;;;;12.78;48.66;101438.97;5025651;28;19929;-88
2021/12/06 01:56:13;;;;;;;;;;;;;;;13.03;48.35;101435.97;5039499;28;20283;-88
2021/12/06 01:58:38;;;;;;;;;;;;;;;12.86;48.45;101438.59;5041075;28;19967;-90
2021/12/06 02:01:04;;;;;;;;;;;;;;;13.00;48.23;101437.94;5040279;28;19924;-89
2021/12/06 02:03:29;;;;;;;;;;;;;;;12.92;48.90;101433.78;5039676;28;19933;-90
2021/12/06 02:05:55;;;;;;;;;;;;;;;12.81;48.90;101432.53;5040354;28;20016;-90
2021/12/06 02:08:20;;;;;;;;;;;;;;;13.08;48.48;101433.03;5039270;28;20019;-89
2021/12/06 02:10:45;;;;;;;;;;;;;;;12.97;48.16;101427.22;5040110;28;20395;-89
2021/12/06 02:13:11;;;;;;;;;;;;;;;12.99;48.23;101428.91;5038964;28;20367;-90
2021/12/06 02:15:45;;;;;;;;;;;;;;;13.00;48.29;101436.13;5038726;28;19967;-89
2021/12/06 02:18:16;;;;;;;;;;;;;;;13.09;48.15;101432.09;5039355;28;19940;-89
2021/12/06 02:20:48;;;;;;;;;;;;;;;12.83;49.05;101427.88;5040195;28;19917;-89
2021/12/06 02:23:14;;;;;;;;;;;;;;;12.94;48.47;101426.41;5041268;28;20005;-90
2021/12/06 02:25:39;;;;;;;;;;;;;;;12.95;48.56;101432.72;5040502;28;19976;-89
2021/12/06 02:28:05;;;;;;;;;;;;;;;12.97;48.09;101428.13;5040513;28;19902;-90
2021/12/06 02:30:30;;;;;;;;;;;;;;;13.07;48.20;101434.88;5039026;28;19940;-90
2021/12/06 02:32:55;;;;;;;;;;;;;;;12.69;48.89;101424.00;5039724;28;19925;-90
2021/12/06 02:35:22;;;;;;;;;;;;;;;12.38;49.55;101424.56;5039857;28;19918;-89
2021/12/06 02:37:48;;;;;;;;;;;;;;;11.98;50.64;101424.50;5041185;28;19925;-89
2021/12/06 02:40:16;;;;;;;;;;;;;;;11.59;52.12;101422.53;5042168;28;19917;-89
2021/12/06 02:42:44;;;;;;;;;;;;;;;12.23;50.61;101420.72;5044599;28;19909;-89
2021/12/06 02:45:12;;;;;;;;;;;;;;;11.72;51.30;101427.47;5044238;28;19933;-89
2021/12/06 02:47:37;;;;;;;;;;;;;;;11.46;52.68;101424.91;5042935;28;19924;-89
2021/12/06 02:50:08;;;;;;;;;;;;;;;11.60;52.10;101429.75;5040122;28;20561;-89
2021/12/06 02:52:33;;;;;;;;;;;;;;;12.08;50.57;101430.41;5038879;28;19918;-89
2021/12/06 02:55:00;;;;;;;;;;;;;;;11.64;52.41;101420.53;5039570;28;19945;-89
2021/12/06 02:57:35;;;;;;;;;;;;;;;11.84;51.02;101440.47;5039690;28;19925;-89
2021/12/06 03:00:03;;;;;;;;;;;;;;;11.90;51.24;101437.50;5039891;28;19971;-89
2021/12/06 03:02:30;;;;;;;;;;;;;;;12.07;50.36;101430.50;5039031;28;19926;-90
2021/12/06 03:04:55;;;;;;;;;;;;;;;11.42;51.51;101433.22;5039031;28;19922;-90
2021/12/06 03:07:24;;;;;;;;;;;;;;;11.14;52.97;101431.63;5038883;28;19924;-90
2021/12/06 03:09:52;;;;;;;;;;;;;;;10.12;56.45;101422.00;5039635;28;19930;-89
2021/12/06 03:12:19;;;;;;;;;;;;;;;10.32;55.76;101429.38;5042314;28;19918;-89
2021/12/06 03:14:50;;;;;;;;;;;;;;;10.45;55.10;101425.28;5042247;28;19925;-89
2021/12/06 03:17:16;;;;;;;;;;;;;;;10.71;54.60;101431.53;5043493;28;19924;-89
2021/12/06 03:19:41;;;;;;;;;;;;;;;11.24;52.76;101443.88;5043238;28;19928;-89
2021/12/06 03:22:08;;;;;;;;;;;;;;;11.88;50.40;101437.56;5042909;28;20422;-89
2021/12/06 03:24:33;;;;;;;;;;;;;;;11.85;50.54;101451.25;5042983;28;19918;-89
2021/12/06 03:26:59;;;;;;;;;;;;;;;11.76;51.04;101445.34;5043721;28;19957;-88
2021/12/06 03:29:25;;;;;;;;;;;;;;;11.56;51.10;101448.91;5042739;28;19918;-88
2021/12/06 03:31:51;;;;;;;;;;;;;;;11.85;50.79;101445.84;5042197;28;19920;-88
2021/12/06 03:34:17;;;;;;;;;;;;;;;11.20;52.51;101442.22;5028714;28;19953;-89
2021/12/06 03:36:43;;;;;;;;;;;;;;;11.05;52.92;101449.16;5043952;28;19917;-88
2021/12/06 03:39:10;;;;;;;;;;;;;;;11.27;51.93;101443.75;5042737;28;19921;-89
2021/12/06 03:41:35;;;;;;;;;;;;;;;11.64;51.13;101446.72;5042904;28;19933;-89
2021/12/06 03:44:00;;;;;;;;;;;;;;;12.07;49.54;101433.19;5043157;28;20028;-89
2021/12/06 03:46:27;;;;;;;;;;;;;;;12.15;49.27;101433.72;5042891;28;19924;-89
2021/12/06 03:48:52;;;;;;;;;;;;;;;11.95;49.17;101437.31;5042203;28;19925;-89
2021/12/06 03:51:17;;;;;;;;;;;;;;;11.97;49.08;101433.63;5043111;28;19918;-89
2021/12/06 03:53:43;;;;;;;;;;;;;;;11.81;49.35;101443.31;5043491;28;19918;-89
2021/12/06 03:56:08;;;;;;;;;;;;;;;11.89;49.00;101441.16;5044104;28;19929;-89
2021/12/06 03:58:34;;;;;;;;;;;;;;;11.88;48.77;101443.00;5049576;28;19952;-88
2021/12/06 04:01:02;;;;;;;;;;;;;;;12.12;48.63;101463.69;5055150;28;19918;-88
2021/12/06 04:03:28;;;;;;;;;;;;;;;12.02;48.89;101461.41;5052238;28;19926;-88
2021/12/06 04:05:54;;;;;;;;;;;;;;;12.05;48.59;101457.69;5044440;28;19964;-88
2021/12/06 04:08:19;;;;;;;;;;;;;;;12.16;48.48;101463.50;5043004;28;19929;-89
2021/12/06 04:10:45;;;;;;;;;;;;;;;11.98;49.13;101461.59;5042364;28;20007;-89
2021/12/06 04:13:10;;;;;;;;;;;;;;;12.33;48.16;101453.72;5042152;28;19917;-88
2021/12/06 04:15:38;;;;;;;;;;;;;;;12.19;48.98;101459.78;5042501;28;19953;-88
2021/12/06 04:18:04;;;;;;;;;;;;;;;12.36;48.25;101454.44;5041842;28;19918;-88
2021/12/06 04:20:30;;;;;;;;;;;;;;;12.28;48.13;101464.78;5041906;28;19963;-88
2021/12/06 04:22:56;;;;;;;;;;;;;;;12.09;48.71;101459.28;5039293;28;19918;-88
2021/12/06 04:25:21;;;;;;;;;;;;;;;11.95;49.49;101468.03;5041812;28;19917;-87
2021/12/06 04:27:59;;;;;;;;;;;;;;;11.54;51.09;101478.78;5042161;28;19925;-89
2021/12/06 04:30:25;;;;;;;;;;;;;;;11.76;50.09;101488.72;5042235;28;19918;-88
2021/12/06 04:32:51;;;;;;;;;;;;;;;11.48;50.66;101487.16;5042247;28;20028;-90
2021/12/06 04:35:16;;;;;;;;;;;;;;;11.73;50.14;101484.31;5042084;28;19917;-89
2021/12/06 04:37:42;;;;;;;;;;;;;;;12.03;49.27;101487.56;5026087;28;19924;-88
2021/12/06 04:40:09;;;;;;;;;;;;;;;11.65;49.45;101481.91;5041482;28;19972;-88
2021/12/06 04:42:35;;;;;;;;;;;;;;;11.95;48.88;101481.59;5040612;28;19918;-89
2021/12/06 04:45:01;;;;;;;;;;;;;;;12.03;48.02;101484.88;5040557;28;19917;-89
2021/12/06 04:47:26;;;;;;;;;;;;;;;11.93;48.08;101478.06;5041434;28;19956;-89
2021/12/06 04:49:51;;;;;;;;;;;;;;;11.85;47.93;101472.94;5041091;28;19925;-89
2021/12/06 04:52:17;;;;;;;;;;;;;;;11.80;47.89;101455.09;5041648;28;19918;-88
2021/12/06 04:54:45;;;;;;;;;;;;;;;11.75;47.54;101452.59;5042021;28;19917;-88
2021/12/06 04:57:13;;;;;;;;;;;;;;;11.60;48.10;101451.41;5041928;28;19917;-89
2021/12/06 04:59:41;;;;;;;;;;;;;;;11.52;48.18;101451.75;5041776;28;19921;-88
2021/12/06 05:02:09;;;;;;;;;;;;;;;11.66;47.70;101445.72;5041637;28;20313;-89
2021/12/06 05:04:35;;;;;;;;;;;;;;;11.64;48.02;101453.06;5041354;28;19933;-89
2021/12/06 05:07:07;;;;;;;;;;;;;;;11.64;47.95;101447.63;5041356;28;19917;-89
2021/12/06 05:09:35;;;;;;;;;;;;;;;11.49;47.80;101459.13;5041181;28;20321;-89
2021/12/06 05:12:01;;;;;;;;;;;;;;;11.52;47.73;101468.00;5040355;28;19972;-88
2021/12/06 05:14:27;;;;;;;;;;;;;;;11.44;48.04;101467.41;5041241;28;19917;-88
2021/12/06 05:16:53;;;;;;;;;;;;;;;11.41;48.31;101472.97;5041229;28;19924;-87
2021/12/06 05:19:19;;;;;;;;;;;;;;;10.71;50.05;101476.66;5041106;28;19921;-88
2021/12/06 05:21:44;;;;;;;;;;;;;;;11.15;49.50;101479.44;5040405;28;19921;-88
2021/12/06 05:24:09;;;;;;;;;;;;;;;11.31;49.32;101477.91;5041545;28;20347;-88
2021/12/06 05:26:36;;;;;;;;;;;;;;;11.47;49.36;101482.69;5042404;28;19920;-88
2021/12/06 05:29:02;;;;;;;;;;;;;;;11.74;48.85;101475.22;5042159;28;19917;-88
2021/12/06 05:31:29;;;;;;;;;;;;;;;11.82;48.85;101483.03;5041119;28;19917;-89
2021/12/06 05:34:00;;;;;;;;;;;;;;;10.93;52.30;101480.31;5040828;28;19928;-89
2021/12/06 05:36:26;;;;;;;;;;;;;;;10.66;54.05;101482.25;5040260;28;19922;-89
2021/12/06 05:38:52;;;;;;;;;;;;;;;11.26;52.16;101482.63;5039290;28;19914;-89
2021/12/06 05:41:17;;;;;;;;;;;;;;;10.01;55.74;101491.75;5040018;28;19984;-89
2021/12/06 05:43:42;;;;;;;;;;;;;;;10.40;55.56;101508.44;5040136;28;19917;-87
2021/12/06 05:46:08;;;;;;;;;;;;;;;10.92;54.25;101496.63;5039898;28;19921;-90
2021/12/06 05:48:33;;;;;;;;;;;;;;;11.23;53.41;101493.59;5023564;28;19945;-89
2021/12/06 05:50:58;;;;;;;;;;;;;;;10.66;54.51;101494.88;5040118;28;19918;-89
2021/12/06 05:53:24;;;;;;;;;;;;;;;11.12;53.31;101493.13;5040582;28;19967;-90
2021/12/06 05:55:49;;;;;;;;;;;;;;;9.85;58.10;101492.31;5042435;28;19928;-90
2021/12/06 05:58:17;;;;;;;;;;;;;;;9.87;58.37;101493.16;5042475;28;19949;-90
2021/12/06 06:00:43;;;;;;;;;;;;;;;9.20;60.34;101499.81;5042870;28;19917;-90
2021/12/06 06:03:09;;;;;;;;;;;;;;;9.22;62.24;101497.06;5042691;28;19928;-89
2021/12/06 06:05:35;;;;;;;;;;;;;;;9.91;58.84;101496.63;5043634;28;19922;-88
2021/12/06 06:08:01;;;;;;;;;;;;;;;10.06;58.78;101496.09;5043980;28;19917;-89
2021/12/06 06:10:28;;;;;;;;;;;;;;;9.22;62.63;101495.28;5043084;28;19975;-89
2021/12/06 06:12:56;;;;;;;;;;;;;;;9.15;62.80;101491.00;5043046;28;19944;-90
2021/12/06 06:15:23;;;;;;;;;;;;;;;9.36;61.88;101497.53;5042701;28;19902;-89
2021/12/06 06:17:48;;;;;;;;;;;;;;;8.82;64.98;101495.63;5042018;28;19917;-89
2021/12/06 06:20:19;;;;;;;;;;;;;;;10.20;59.91;101501.00;5039145;28;19918;-91
2021/12/06 06:22:44;;;;;;;;;;;;;;;9.39;62.16;101497.44;5037442;28;19948;-91
2021/12/06 06:25:10;;;;;;;;;;;;;;;9.18;63.02;101500.81;5041085;28;19908;-89
2021/12/06 06:27:35;;;;;;;;;;;;;;;10.19;59.57;101496.53;5039510;28;19921;-89
2021/12/06 06:30:01;;;;;;;;;;;;;;;9.66;60.91;101492.06;5037784;28;19921;-88
2021/12/06 06:32:26;;;;;;;;;;;;;;;9.80;60.18;101493.38;5035625;28;20367;-88
2021/12/06 06:34:51;;;;;;;;;;;;;;;10.35;57.99;101502.31;5036248;28;19917;-89
2021/12/06 06:37:18;;;;;;;;;;;;;;;10.46;57.07;101510.94;5034533;28;19997;-86
2021/12/06 06:39:43;;;;;;;;;;;;;;;10.28;58.88;101508.84;5034934;28;20358;-87
2021/12/06 06:42:08;;;;;;;;;;;;;;;10.25;58.31;101519.75;5035211;28;19921;-87
2021/12/06 06:44:33;;;;;;;;;;;;;;;9.60;60.95;101511.16;5020557;28;19922;-89
2021/12/06 06:46:59;;;;;;;;;;;;;;;10.66;57.46;101514.72;5032966;28;19990;-85
2021/12/06 06:49:25;;;;;;;;;;;;;;;9.64;60.93;101520.06;5019348;28;19918;-88
2021/12/06 06:51:51;;;;;;;;;;;;;;;9.46;61.74;101526.94;5035594;28;19924;-89
2021/12/06 06:54:16;;;;;;;;;;;;;;;9.56;62.00;101521.19;5042644;28;19918;-90
2021/12/06 06:56:41;;;;;;;;;;;;;;;9.20;62.88;101523.25;5052405;28;19928;-90
2021/12/06 06:59:06;;;;;;;;;;;;;;;9.31;63.27;101525.59;5051826;28;19922;-92
2021/12/06 07:01:32;;;;;;;;;;;;;;;9.61;62.97;101525.56;5051878;28;19959;-90
2021/12/06 07:03:58;;;;;;;;;;;;;;;8.94;64.37;101529.44;5053189;28;19926;-92
2021/12/06 07:06:27;;;;;;;;;;;;;;;9.86;60.98;101518.41;5029942;28;19933;-94
2021/12/06 07:08:54;;;;;;;;;;;;;;;9.02;64.45;101527.38;5017943;28;19913;-89
2021/12/06 07:11:20;;;;;;;;;;;;;;;8.94;64.34;101524.91;5017981;28;19921;-90
2021/12/06 07:13:47;;;;;;;;;;;;;;;8.79;65.35;101520.84;5001404;28;20450;-89
2021/12/06 07:16:13;;;;;;;;;;;;;;;9.05;64.28;101513.78;5015483;28;19941;-89
2021/12/06 07:18:38;;;;;;;;;;;;;;;8.76;64.76;101504.75;5016626;28;19925;-88
2021/12/06 07:21:04;;;;;;;;;;;;;;;9.69;62.70;101502.75;5017310;28;20399;-89
2021/12/06 07:23:29;;;;;;;;;;;;;;;9.04;65.30;101499.44;5016042;28;20398;-87
2021/12/06 07:25:55;;;;;;;;;;;;;;;8.14;68.83;101503.75;5023162;28;20383;-89
2021/12/06 07:28:20;;;;;;;;;;;;;;;8.22;68.50;101508.94;5029138;28;20332;-91
2021/12/06 07:30:45;;;;;;;;;;;;;;;8.56;66.85;101497.25;5025323;28;19985;-90
2021/12/06 07:33:11;;;;;;;;;;;;;;;8.91;65.43;101494.44;5029731;28;19983;-91
2021/12/06 07:35:36;;;;;;;;;;;;;;;9.58;62.16;101496.81;5028803;28;19940;-91
2021/12/06 07:38:03;;;;;;;;;;;;;;;8.47;67.04;101493.00;5036013;28;19968;-92
2021/12/06 07:40:29;;;;;;;;;;;;;;;9.59;63.55;101490.50;5029965;28;19925;-92
2021/12/06 07:42:54;;;;;;;;;;;;;;;9.83;61.91;101493.28;5022069;28;19957;-92
2021/12/06 07:45:19;;;;;;;;;;;;;;;9.43;61.90;101498.19;5036213;28;19944;-93
2021/12/06 07:47:45;;;;;;;;;;;;;;;9.36;63.05;101499.31;5035417;28;19918;-91
2021/12/06 07:50:12;;;;;;;;;;;;;;;9.07;62.92;101502.94;5035339;28;19953;-90
2021/12/06 07:52:37;;;;;;;;;;;;;;;8.83;65.19;101500.97;5021001;28;19921;-90
2021/12/06 07:55:07;;;;;;;;;;;;;;;8.51;67.71;101504.56;5015281;28;20290;-90
2021/12/06 07:57:32;;;;;;;;;;;;;;;8.94;65.68;101507.84;5017451;28;19972;-93
2021/12/06 07:59:58;;;;;;;;;;;;;;;9.39;63.63;101496.53;5019011;28;19917;-92
2021/12/06 08:02:23;;;;;;;;;;;;;;;9.42;63.07;101506.34;5019615;28;19941;-94
2021/12/06 08:04:59;;;;;;;;;;;;;;;9.15;64.47;101499.09;5020829;28;19913;-93
2021/12/06 08:07:24;;;;;;;;;;;;;;;9.13;64.13;101503.63;5040407;28;19933;-91
2021/12/06 08:09:49;;;;;;;;;;;;;;;8.69;65.51;101498.66;5038730;28;19918;-90
2021/12/06 08:12:14;;;;;;;;;;;;;;;8.11;67.81;101506.53;5030938;28;20002;-92
2021/12/06 08:14:40;;;;;;;;;;;;;;;8.49;67.51;101512.72;5019358;28;19917;-88
2021/12/06 08:17:05;;;;;;;;;;;;;;;8.32;68.00;101517.69;5018430;28;19917;-91
2021/12/06 08:19:32;;;;;;;;;;;;;;;8.33;66.86;101530.22;5017729;28;20411;-90
2021/12/06 08:21:57;;;;;;;;;;;;;;;8.40;68.44;101531.81;5025887;28;19948;-91
2021/12/06 08:24:23;;;;;;;;;;;;;;;8.73;66.82;101531.84;5018708;28;19933;-88
2021/12/06 08:26:48;;;;;;;;;;;;;;;9.16;65.00;101532.34;5035320;28;19937;-92
2021/12/06 08:29:16;;;;;;;;;;;;;;;9.30;64.77;101535.53;5038805;28;19921;-91
2021/12/06 08:31:43;;;;;;;;;;;;;;;10.64;58.82;101532.81;5039365;28;19928;-91
2021/12/06 08:34:08;;;;;;;;;;;;;;;9.64;62.04;101528.16;5019799;28;19961;-89
2021/12/06 08:36:33;;;;;;;;;;;;;;;9.21;62.92;101533.13;5030917;28;19928;-90
2021/12/06 08:38:59;;;;;;;;;;;;;;;9.40;62.57;101525.31;5039249;28;20441;-91
2021/12/06 08:41:25;;;;;;;;;;;;;;;10.11;60.33;101522.94;5038263;28;19992;-91
2021/12/06 08:43:53;;;;;;;;;;;;;;;9.90;60.79;101517.38;5024091;28;19957;-92
2021/12/06 08:46:20;;;;;;;;;;;;;;;9.39;62.54;101521.72;5024770;28;19918;-90
2021/12/06 08:48:46;;;;;;;;;;;;;;;10.04;61.11;101519.59;5031366;28;20295;-89
2021/12/06 08:51:19;;;;;;;;;;;;;;;9.41;63.77;101518.97;5032358;28;19917;-91
2021/12/06 08:53:45;;;;;;;;;;;;;;;10.34;59.59;101521.28;5029062;28;19925;-89
2021/12/06 08:56:10;;;;;;;;;;;;;;;9.97;60.66;101519.88;5035698;28;19921;-89
2021/12/06 08:58:39;;;;;;;;;;;;;;;9.58;63.33;101519.31;5029871;28;19917;-92
2021/12/06 09:01:07;;;;;;;;;;;;;;;9.95;60.50;101509.09;5007973;28;19940;-88
2021/12/06 09:03:34;;;;;;;;;;;;;;;9.54;61.69;101504.16;5040127;28;19933;-88
2021/12/06 09:06:01;;;;;;;;;;;;;;;9.33;62.11;101500.31;5026633;28;19932;-89
2021/12/06 09:08:26;;;;;;;;;;;;;;;9.20;62.73;101504.34;5036316;28;19925;-89
2021/12/06 09:10:52;;;;;;;;;;;;;;;8.98;63.29;101514.91;5023238;28;20381;-88
2021/12/06 09:13:24;;;;;;;;;;;;;;;9.81;60.86;101505.97;5009344;28;20394;-86
2021/12/06 09:15:51;;;;;;;;;;;;;;;9.64;61.72;101495.75;5031095;28;20387;-91
2021/12/06 09:18:17;;;;;;;;;;;;;;;9.66;61.67;101491.16;5023076;28;19918;-89
2021/12/06 09:20:46;;;;;;;;;;;;;;;9.15;63.74;101495.47;5014104;28;19940;-88
2021/12/06 09:23:12;;;;;;;;;;;;;;;9.76;61.70;101490.78;5016115;28;19924;-89
2021/12/06 09:25:38;;;;;;;;;;;;;;;9.35;62.40;101486.78;5017904;28;20364;-87
2021/12/06 09:28:04;;;;;;;;;;;;;;;9.01;64.50;101496.81;5035013;28;19918;-87
2021/12/06 09:30:30;;;;;;;;;;;;;;;9.51;62.99;101490.75;5025844;28;19952;-89
2021/12/06 09:32:56;;;;;;;;;;;;;;;9.25;63.37;101502.38;5031350;28;19933;-87
2021/12/06 09:35:27;;;;;;;;;;;;;;;9.04;64.26;101515.63;5016512;28;19926;-88
2021/12/06 09:37:53;;;;;;;;;;;;;;;9.38;63.43;101517.25;5035752;28;19917;-86
2021/12/06 09:40:19;;;;;;;;;;;;;;;9.46;61.68;101525.09;5027028;28;19937;-86
2021/12/06 09:42:45;;;;;;;;;;;;;;;9.25;62.34;101523.97;5016592;28;19933;-87
2021/12/06 09:45:12;;;;;;;;;;;;;;;9.81;60.59;101517.66;5015745;28;19929;-88
2021/12/06 09:47:38;;;;;;;;;;;;;;;10.15;59.05;101519.22;5017327;28;19917;-88
2021/12/06 09:50:04;;;;;;;;;;;;;;;9.73;59.93;101517.03;5018872;28;19960;-88
2021/12/06 09:52:29;;;;;;;;;;;;;;;9.81;59.45;101512.25;5017605;28;19921;-89
2021/12/06 09:54:55;;;;;;;;;;;;;;;8.84;63.03;101518.03;5020580;28;19914;-86
2021/12/06 09:57:21;;;;;;;;;;;;;;;8.84;63.33;101507.22;5032271;28;19902;-86
2021/12/06 09:59:46;;;;;;;;;;;;;;;9.06;62.16;101520.97;5031124;28;19918;-85
2021/12/06 10:02:14;;;;;;;;;;;;;;;9.46;61.38;101514.31;5016700;28;19953;-87
2021/12/06 10:04:42;;;;;;;;;;;;;;;9.32;62.28;101513.88;5015911;28;19926;-86
2021/12/06 10:07:09;;;;;;;;;;;;;;;9.87;60.91;101501.25;5030018;28;19918;-84
2021/12/06 10:09:35;;;;;;;;;;;;;;;10.36;58.88;101486.97;5035861;28;19921;-88
2021/12/06 10:12:02;;;;;;;;;;;;;;;9.99;59.08;101493.66;5036714;28;19918;-90
2021/12/06 10:14:27;;;;;;;;;;;;;;;9.60;61.58;101488.66;5037142;28;19918;-88
2021/12/06 10:16:53;;;;;;;;;;;;;;;9.30;62.11;101489.63;5036855;28;19924;-91
2021/12/06 10:19:21;;;;;;;;;;;;;;;9.97;58.46;101479.31;5034882;28;19918;-92
2021/12/06 10:21:46;;;;;;;;;;;;;;;9.77;60.63;101475.47;5035025;28;19925;-89
2021/12/06 10:24:14;;;;;;;;;;;;;;;9.67;60.05;101464.09;5035058;28;19917;-89
2021/12/06 10:26:40;;;;;;;;;;;;;;;10.27;58.22;101459.28;5036141;28;20358;-88
2021/12/06 10:29:20;;;;;;;;;;;;;;;9.49;61.17;101452.06;5019967;28;19922;-90
2021/12/06 10:31:48;;;;;;;;;;;;;;;9.83;58.71;101440.13;5015274;28;19914;-90
2021/12/06 10:34:14;;;;;;;;;;;;;;;9.67;59.22;101438.91;5015699;28;19926;-90
2021/12/06 10:36:41;;;;;;;;;;;;;;;9.45;59.55;101427.94;5028347;28;19917;-93
2021/12/06 10:39:07;;;;;;;;;;;;;;;9.58;58.70;101432.84;5036349;28;19948;-91
2021/12/06 10:41:37;;;;;;;;;;;;;;;8.49;62.86;101425.56;5036836;28;19925;-93
2021/12/06 10:44:04;;;;;;;;;;;;;;;9.04;59.81;101418.47;5037714;28;19926;-96
2021/12/06 10:49:47;;;;;;;;;;;;;;;8.86;59.33;101409.13;5018809;28;19931;-93
2021/12/06 10:52:26;;;;;;;;;;;;;;;9.38;57.70;101403.84;5048584;28;19965;-93
2021/12/06 10:54:52;;;;;;;;;;;;;;;9.05;59.34;101400.44;5038525;28;19922;-90
2021/12/06 10:57:19;;;;;;;;;;;;;;;9.02;59.88;101397.84;5044478;28;19937;-87
2021/12/06 10:59:44;;;;;;;;;;;;;;;9.16;58.94;101390.19;5027353;28;19922;-89
2021/12/06 11:02:10;;;;;;;;;;;;;;;9.71;57.22;101386.53;5039105;28;19957;-89
2021/12/06 11:04:40;;;;;;;;;;;;;;;8.27;60.86;101384.81;5028620;28;19921;-89
2021/12/06 11:07:07;;;;;;;;;;;;;;;8.76;60.04;101391.47;5035255;28;19918;-91
2021/12/06 11:09:35;;;;;;;;;;;;;;;8.44;60.77;101382.53;5022488;28;19917;-89
2021/12/06 11:12:02;;;;;;;;;;;;;;;9.14;58.63;101383.94;5030757;28;19953;-92
2021/12/06 11:14:34;;;;;;;;;;;;;;;9.83;57.39;101375.28;5027475;28;20371;-88
2021/12/06 11:17:05;;;;;;;;;;;;;;;9.45;56.20;101379.31;5032704;28;19922;-90
2021/12/06 11:19:31;;;;;;;;;;;;;;;8.73;58.31;101367.28;5035131;28;19973;-90
2021/12/06 11:21:58;;;;;;;;;;;;;;;9.50;57.36;101359.31;5036599;28;19917;-90
2021/12/06 11:24:25;;;;;;;;;;;;;;;9.19;57.84;101352.28;5029240;28;19926;-90
2021/12/06 11:26:59;;;;;;;;;;;;;;;8.67;58.30;101348.59;5033109;28;19972;-92
2021/12/06 11:29:29;;;;;;;;;;;;;;;9.71;56.33;101340.59;5020980;28;19926;-91
2021/12/06 11:32:03;;;;;;;;;;;;;;;9.03;57.14;101334.84;5030896;28;19921;-93
2021/12/06 11:34:40;;;;;;;;;;;;;;;10.01;54.20;101318.75;5028100;28;20432;-88
2021/12/06 11:37:22;;;;;;;;;;;;;;;9.43;56.27;101317.25;5023825;28;20291;-87
2021/12/06 11:39:49;;;;;;;;;;;;;;;9.09;56.40;101314.84;5032936;28;19968;-89
2021/12/06 11:42:15;;;;;;;;;;;;;;;10.80;52.96;101308.50;5032681;28;20379;-87
2021/12/06 11:44:43;;;;;;;;;;;;;;;10.27;53.92;101313.25;5022105;28;19932;-85
2021/12/06 11:47:16;;;;;;;;;;;;;;;10.51;54.37;101318.69;5023111;28;19918;-88
2021/12/06 11:49:49;;;;;;;;;;;;;;;9.88;55.03;101303.00;5028791;28;19959;-87
2021/12/06 11:52:18;;;;;;;;;;;;;;;9.94;54.44;101305.47;5034690;28;20015;-88
2021/12/06 11:54:47;;;;;;;;;;;;;;;9.17;56.45;101302.84;5030500;28;19918;-87
2021/12/06 11:57:14;;;;;;;;;;;;;;;9.66;56.17;101285.84;5034606;28;19933;-86
2021/12/06 12:00:12;;;;;;;;;;;;;;;9.75;55.92;101290.91;5022947;28;19922;-88
2021/12/06 12:02:38;;;;;;;;;;;;;;;9.81;55.95;101279.84;5016288;28;19980;-87
2021/12/06 12:05:21;;;;;;;;;;;;;;;8.90;58.40;101268.72;5048652;28;19921;-86
2021/12/06 12:08:01;;;;;;;;;;;;;;;8.90;57.44;101275.00;5031442;28;19957;-84
2021/12/06 12:10:28;;;;;;;;;;;;;;;9.57;56.43;101263.66;5017468;28;19921;-86
2021/12/06 12:12:54;;;;;;;;;;;;;;;9.55;56.06;101278.13;5012178;28;19917;-86
2021/12/06 12:15:19;;;;;;;;;;;;;;;8.93;57.91;101287.50;5028403;28;19921;-87
2021/12/06 12:17:46;;;;;;;;;;;;;;;8.88;58.39;101282.25;5026559;28;19918;-85
2021/12/06 12:20:11;;;;;;;;;;;;;;;9.21;56.56;101282.91;5021409;28;20366;-86
2021/12/06 12:22:39;;;;;;;;;;;;;;;9.17;57.14;101275.84;5043508;28;19930;-87
2021/12/06 12:25:09;;;;;;;;;;;;;;;9.28;56.67;101263.81;5029657;28;19917;-87
2021/12/06 12:27:55;;;;;;;;;;;;;;;9.07;56.89;101269.00;5020771;28;20016;-86
2021/12/06 12:30:20;;;;;;;;;;;;;;;9.79;56.18;101270.94;5058396;28;19921;-87
2021/12/06 12:32:45;;;;;;;;;;;;;;;9.84;55.06;101257.25;5055458;28;19936;-86
2021/12/06 12:35:13;;;;;;;;;;;;;;;9.81;54.99;101260.94;5056341;28;20383;-85
2021/12/06 12:37:40;;;;;;;;;;;;;;;9.43;56.17;101246.19;5042241;28;20334;-88
2021/12/06 12:40:14;;;;;;;;;;;;;;;8.69;57.60;101237.00;5056588;28;19917;-89
2021/12/06 12:42:52;;;;;;;;;;;;;;;9.30;56.45;101229.53;5057238;28;19960;-86
2021/12/06 12:45:18;;;;;;;;;;;;;;;8.33;59.12;101222.88;5055803;28;19944;-89
2021/12/06 12:47:43;;;;;;;;;;;;;;;8.89;57.94;101211.16;5057096;28;19917;-87
2021/12/06 12:50:10;;;;;;;;;;;;;;;9.19;56.71;101203.81;5055241;28;20059;-88
2021/12/06 12:52:45;;;;;;;;;;;;;;;8.94;57.17;101190.31;5030869;28;19922;-87
2021/12/06 12:55:19;;;;;;;;;;;;;;;8.92;57.09;101175.97;5045978;28;19921;-88
2021/12/06 12:57:44;;;;;;;;;;;;;;;9.12;56.54;101164.47;5032027;28;19945;-86